Time;durP1;ratioP1;P1;durP2;ratioP2;P2;SDS_P1;SDS_P2;PMS_P1;PMS_P2;Temp;Humidity;BMP_temperature;BMP_pressure;BME280_temperature;BME280_humidity;BME280_pressure;Samples;Min_cycle;Max_cycle;Signal;HPM_P1;HPM_P2
2022/03/14 00:00:30;;;;;;;1.75;1.00;;;4.50;99.90;;;;;;5052762;28;20048;-82
2022/03/14 00:02:55;;;;;;;20.75;6.18;;;4.50;99.90;;;;;;5052696;28;20405;-81
2022/03/14 00:05:21;;;;;;;15.27;3.97;;;4.40;99.90;;;;;;5052594;28;20048;-82
2022/03/14 00:07:48;;;;;;;76.20;18.67;;;4.40;99.90;;;;;;5052457;28;20408;-75
2022/03/14 00:10:16;;;;;;;90.72;22.60;;;4.40;99.90;;;;;;5052463;28;20045;-81
2022/03/14 00:12:43;;;;;;;66.25;16.23;;;4.30;99.90;;;;;;5052616;28;20044;-82
2022/03/14 00:15:13;;;;;;;36.70;8.60;;;4.10;99.90;;;;;;5052751;28;20049;-71
2022/03/14 00:17:41;;;;;;;19.17;5.38;;;3.90;99.90;;;;;;5052647;28;20134;-80
2022/03/14 00:20:10;;;;;;;20.58;6.68;;;3.90;99.90;;;;;;5052832;28;20032;-79
2022/03/14 00:22:37;;;;;;;17.33;5.50;;;4.00;99.90;;;;;;5052654;28;20033;-80
2022/03/14 00:25:06;;;;;;;35.83;10.13;;;4.00;99.90;;;;;;5052685;28;20037;-79
2022/03/14 00:27:35;;;;;;;31.67;7.90;;;4.10;99.90;;;;;;5045873;28;20044;-82
2022/03/14 00:30:00;;;;;;;36.88;9.55;;;4.10;99.90;;;;;;5032496;28;20477;-82
2022/03/14 00:32:26;;;;;;;59.33;16.13;;;4.10;99.90;;;;;;5032723;28;20049;-82
2022/03/14 00:34:52;;;;;;;39.63;11.77;;;3.90;99.90;;;;;;5032577;28;20505;-81
2022/03/14 00:37:18;;;;;;;4.72;2.10;;;3.70;99.90;;;;;;5032596;28;20045;-82
2022/03/14 00:39:47;;;;;;;2.28;1.50;;;3.80;99.90;;;;;;5032448;28;20452;-82
2022/03/14 00:42:13;;;;;;;2.80;1.30;;;3.40;99.90;;;;;;5032612;28;20068;-77
2022/03/14 00:44:39;;;;;;;1.75;1.15;;;3.30;99.90;;;;;;5032484;28;20076;-71
2022/03/14 00:47:05;;;;;;;2.28;1.58;;;3.40;99.90;;;;;;5032539;28;20045;-77
2022/03/14 00:49:31;;;;;;;3.08;1.33;;;3.50;99.90;;;;;;5032482;28;20117;-80
2022/03/14 00:51:56;;;;;;;1.23;0.88;;;3.50;99.90;;;;;;5032403;28;20128;-82
2022/03/14 00:54:22;;;;;;;1.27;0.88;;;3.70;99.90;;;;;;5032173;28;20404;-75
2022/03/14 00:56:48;;;;;;;2.00;1.20;;;3.70;99.90;;;;;;5033084;28;20509;-82
2022/03/14 00:59:14;;;;;;;1.55;0.93;;;3.70;99.90;;;;;;5035998;28;20048;-75
2022/03/14 01:01:40;;;;;;;1.70;1.00;;;3.60;99.90;;;;;;5036051;28;20382;-79
2022/03/14 01:04:06;;;;;;;2.25;1.13;;;3.50;99.90;;;;;;5036126;28;20478;-71
2022/03/14 01:06:34;;;;;;;1.10;0.93;;;3.60;99.90;;;;;;5018046;28;20124;-74
2022/03/14 01:08:59;;;;;;;2.03;1.20;;;3.80;99.90;;;;;;5035885;28;20088;-79
2022/03/14 01:11:25;;;;;;;0.95;0.85;;;3.80;99.90;;;;;;5036089;28;20063;-80
2022/03/14 01:13:51;;;;;;;2.00;1.35;;;3.80;99.90;;;;;;5036004;28;20057;-82
2022/03/14 01:16:17;;;;;;;3.53;1.60;;;4.00;99.90;;;;;;5039101;28;20500;-81
2022/03/14 01:18:43;;;;;;;1.58;1.17;;;4.10;99.90;;;;;;5035868;28;20041;-81
2022/03/14 01:21:08;;;;;;;1.80;1.20;;;3.90;99.90;;;;;;5035660;28;20038;-82
2022/03/14 01:23:34;;;;;;;1.50;1.05;;;4.10;99.90;;;;;;5035617;28;20041;-81
2022/03/14 01:26:00;;;;;;;1.85;1.17;;;4.30;99.90;;;;;;5034337;28;20500;-72
2022/03/14 01:28:26;;;;;;;2.67;1.13;;;4.40;99.90;;;;;;5035496;28;20106;-70
2022/03/14 01:30:51;;;;;;;3.80;1.70;;;3.80;99.90;;;;;;5035599;28;20141;-81
2022/03/14 01:33:17;;;;;;;2.50;1.30;;;3.70;99.90;;;;;;5035620;28;20049;-79
2022/03/14 01:35:44;;;;;;;2.05;1.20;;;3.30;99.90;;;;;;5035545;28;20124;-79
2022/03/14 01:38:10;;;;;;;2.22;1.23;;;3.30;99.90;;;;;;5035596;28;20133;-81
2022/03/14 01:40:36;;;;;;;1.45;1.00;;;3.30;99.90;;;;;;5035552;28;20101;-69
2022/03/14 01:43:02;;;;;;;1.83;0.93;;;3.50;99.90;;;;;;5035408;28;20034;-73
2022/03/14 01:45:28;;;;;;;1.40;1.15;;;3.60;99.90;;;;;;5035366;28;20408;-78
2022/03/14 01:47:54;;;;;;;3.33;1.60;;;3.70;99.90;;;;;;5035468;28;20480;-82
2022/03/14 01:50:20;;;;;;;2.00;1.10;;;3.60;99.90;;;;;;5054881;28;20058;-81
2022/03/14 01:52:47;;;;;;;2.85;1.75;;;3.70;99.90;;;;;;5054918;28;20044;-77
2022/03/14 01:55:16;;;;;;;6.53;2.90;;;3.40;99.90;;;;;;5054883;28;20067;-82
2022/03/14 01:57:42;;;;;;;45.42;14.05;;;3.20;99.90;;;;;;5054962;28;20106;-69
2022/03/14 02:00:11;;;;;;;34.58;11.25;;;3.20;99.90;;;;;;5054808;28;20118;-79
2022/03/14 02:02:37;;;;;;;5.40;3.05;;;3.20;99.90;;;;;;5054802;28;20071;-79
2022/03/14 02:05:03;;;;;;;5.32;3.00;;;3.10;99.90;;;;;;5054900;28;20182;-81
2022/03/14 02:07:29;;;;;;;5.50;3.80;;;3.20;99.90;;;;;;5054843;28;20067;-77
2022/03/14 02:09:54;;;;;;;34.10;14.65;;;3.30;99.90;;;;;;5054274;28;20072;-81
2022/03/14 02:12:20;;;;;;;9.80;5.88;;;3.20;99.90;;;;;;5054547;28;20044;-81
2022/03/14 02:14:46;;;;;;;26.05;12.02;;;2.90;99.90;;;;;;5054484;28;20531;-80
2022/03/14 02:17:20;;;;;;;122.75;11.55;;;3.00;99.90;;;;;;5054779;28;20041;-80
2022/03/14 02:19:46;;;;;;;16.40;9.57;;;2.90;99.90;;;;;;5054556;28;20047;-79
2022/03/14 02:22:14;;;;;;;21.02;11.50;;;2.90;99.90;;;;;;5036794;28;20040;-79
2022/03/14 02:24:44;;;;;;;23.60;12.80;;;2.90;99.90;;;;;;5054432;28;20127;-80
2022/03/14 02:27:12;;;;;;;22.33;13.95;;;2.90;99.90;;;;;;5054347;28;20036;-80
2022/03/14 02:29:39;;;;;;;63.33;10.98;;;2.90;99.90;;;;;;5054341;28;20094;-80
2022/03/14 02:32:06;;;;;;;26.65;9.52;;;2.90;99.90;;;;;;5054368;28;20029;-80
2022/03/14 02:34:32;;;;;;;21.00;11.43;;;2.90;99.90;;;;;;5054347;28;20092;-80
2022/03/14 02:36:58;;;;;;;80.18;10.18;;;2.90;99.90;;;;;;5053911;28;20041;-81
2022/03/14 02:39:24;;;;;;;204.57;13.00;;;2.90;99.90;;;;;;5053986;28;20045;-80
2022/03/14 02:41:50;;;;;;;27.48;10.02;;;2.80;99.90;;;;;;5054082;28;20037;-81
2022/03/14 02:44:16;;;;;;;20.23;8.02;;;2.90;99.90;;;;;;5042763;28;20129;-70
2022/03/14 02:46:42;;;;;;;10.60;8.18;;;2.50;99.90;;;;;;5034206;28;20386;-75
2022/03/14 02:49:10;;;;;;;21.17;7.40;;;2.40;99.90;;;;;;5034149;28;20049;-76
2022/03/14 02:51:40;;;;;;;10.93;6.35;;;2.40;99.90;;;;;;5033962;28;20026;-70
2022/03/14 02:54:10;;;;;;;16.60;6.40;;;2.20;99.90;;;;;;5033723;28;20049;-75
2022/03/14 02:56:37;;;;;;;82.65;6.38;;;1.80;99.90;;;;;;5034015;28;20041;-74
2022/03/14 02:59:04;;;;;;;48.90;7.40;;;1.60;99.90;;;;;;5027972;28;20029;-81
2022/03/14 03:01:30;;;;;;;103.72;8.82;;;1.50;99.90;;;;;;5053426;28;20044;-75
2022/03/14 03:03:55;;;;;;;38.05;7.05;;;1.50;99.90;;;;;;5053541;28;20033;-79
2022/03/14 03:06:24;;;;;;;44.53;8.48;;;1.50;99.90;;;;;;5034964;28;20038;-80
2022/03/14 03:08:50;;;;;;;74.75;7.70;;;1.60;99.90;;;;;;5031736;28;20397;-80
2022/03/14 03:11:16;;;;;;;98.03;9.85;;;1.60;99.90;;;;;;5031512;28;20118;-81
2022/03/14 03:13:43;;;;;;;92.32;10.45;;;1.60;99.90;;;;;;5032360;28;20104;-81
2022/03/14 03:16:12;;;;;;;83.47;10.07;;;1.60;99.90;;;;;;5033515;28;20050;-72
2022/03/14 03:18:38;;;;;;;222.55;12.85;;;1.60;99.90;;;;;;5033425;28;20039;-75
2022/03/14 03:21:07;;;;;;;15.88;8.23;;;1.80;99.90;;;;;;5032728;28;20127;-74
2022/03/14 03:23:34;;;;;;;55.58;8.75;;;1.90;99.90;;;;;;5033387;28;20037;-81
2022/03/14 03:26:00;;;;;;;39.25;7.00;;;2.00;99.90;;;;;;5033599;28;20452;-76
2022/03/14 03:28:26;;;;;;;19.95;6.35;;;1.80;99.90;;;;;;5033518;28;20492;-81
2022/03/14 03:30:52;;;;;;;38.58;7.60;;;1.90;99.90;;;;;;5033457;28;20033;-77
2022/03/14 03:33:18;;;;;;;54.30;10.02;;;2.10;99.90;;;;;;5033158;28;20567;-81
2022/03/14 03:35:44;;;;;;;34.40;14.05;;;2.30;99.90;;;;;;5033302;28;20128;-81
2022/03/14 03:38:10;;;;;;;27.77;8.75;;;2.50;99.90;;;;;;5033305;28;20033;-78
2022/03/14 03:40:35;;;;;;;20.00;9.52;;;2.50;99.90;;;;;;5033357;28;20040;-75
2022/03/14 03:43:01;;;;;;;53.65;9.60;;;2.70;99.90;;;;;;5033173;28;20041;-81
2022/03/14 03:45:27;;;;;;;18.90;6.95;;;2.70;99.90;;;;;;5033220;28;20243;-81
2022/03/14 03:47:54;;;;;;;44.00;6.65;;;2.60;99.90;;;;;;5032817;28;20037;-81
2022/03/14 03:50:20;;;;;;;31.40;5.80;;;2.30;99.90;;;;;;5032918;28;20492;-80
2022/03/14 03:52:46;;;;;;;96.93;6.75;;;2.00;99.90;;;;;;5033152;28;20063;-80
2022/03/14 03:55:11;;;;;;;80.82;6.28;;;1.80;99.90;;;;;;5032768;28;20524;-81
2022/03/14 03:57:37;;;;;;;73.88;6.35;;;1.60;99.90;;;;;;5035651;28;20041;-80
2022/03/14 04:00:07;;;;;;;79.18;6.53;;;1.60;99.90;;;;;;5033020;28;20091;-81
2022/03/14 04:02:38;;;;;;;57.47;5.72;;;1.40;99.90;;;;;;5032735;28;20037;-80
2022/03/14 04:05:05;;;;;;;23.95;6.07;;;1.40;99.90;;;;;;5032817;28;20068;-79
2022/03/14 04:07:32;;;;;;;18.75;6.88;;;1.40;99.90;;;;;;5032815;28;20041;-74
2022/03/14 04:09:59;;;;;;;15.73;7.38;;;1.60;99.90;;;;;;5032833;28;20374;-79
2022/03/14 04:12:26;;;;;;;43.60;7.68;;;1.70;99.90;;;;;;5032693;28;20037;-80
2022/03/14 04:15:00;;;;;;;8.35;6.38;;;1.90;99.90;;;;;;5032594;28;20132;-78
2022/03/14 04:17:27;;;;;;;11.23;6.57;;;1.70;99.90;;;;;;5033004;28;20505;-81
2022/03/14 04:19:52;;;;;;;19.13;6.05;;;1.80;99.90;;;;;;5032902;28;20540;-80
2022/03/14 04:22:19;;;;;;;22.45;6.43;;;1.70;99.90;;;;;;5032658;28;20057;-80
2022/03/14 04:24:45;;;;;;;41.78;6.47;;;1.60;99.90;;;;;;5032675;28;20041;-80
2022/03/14 04:27:11;;;;;;;18.70;6.00;;;1.60;99.90;;;;;;5032626;28;20204;-79
2022/03/14 04:29:38;;;;;;;61.53;7.05;;;1.40;99.90;;;;;;5032477;28;20455;-75
2022/03/14 04:32:04;;;;;;;27.13;6.32;;;1.30;99.90;;;;;;5033802;28;20080;-81
2022/03/14 04:34:30;;;;;;;21.25;6.63;;;1.30;99.90;;;;;;5036615;28;20132;-68
2022/03/14 04:36:57;;;;;;;15.10;6.82;;;1.30;99.90;;;;;;5036194;28;20082;-71
2022/03/14 04:39:23;;;;;;;10.00;6.90;;;1.50;99.90;;;;;;5036677;28;20040;-81
2022/03/14 04:41:48;;;;;;;17.95;7.50;;;1.60;99.90;;;;;;5036383;28;20037;-81
2022/03/14 04:44:16;;;;;;;14.15;6.15;;;1.60;99.90;;;;;;5036182;28;20052;-80
2022/03/14 04:46:42;;;;;;;30.88;8.07;;;1.40;99.90;;;;;;5036214;28;20044;-81
2022/03/14 04:49:13;;;;;;;19.00;8.15;;;1.60;99.90;;;;;;5036103;28;20041;-72
2022/03/14 04:51:39;;;;;;;26.85;8.75;;;1.50;99.90;;;;;;5036342;28;20057;-81
2022/03/14 04:54:05;;;;;;;16.77;7.90;;;1.60;99.90;;;;;;5036267;28;20497;-80
2022/03/14 04:56:31;;;;;;;26.70;8.23;;;1.70;99.90;;;;;;5036277;28;20176;-81
2022/03/14 04:58:57;;;;;;;39.85;8.38;;;1.60;99.90;;;;;;5036288;28;20049;-81
2022/03/14 05:01:23;;;;;;;23.90;8.13;;;1.40;99.90;;;;;;5036244;28;20060;-79
2022/03/14 05:03:52;;;;;;;71.70;9.52;;;1.30;99.90;;;;;;5036302;28;20443;-80
2022/03/14 05:06:21;;;;;;;106.60;9.35;;;1.30;99.90;;;;;;5035809;28;20037;-77
2022/03/14 05:08:47;;;;;;;241.63;13.23;;;1.10;99.90;;;;;;5035815;28;20048;-81
2022/03/14 05:11:14;;;;;;;130.00;10.63;;;1.00;99.90;;;;;;5035721;28;20049;-77
2022/03/14 05:13:41;;;;;;;206.35;13.88;;;1.00;99.90;;;;;;5036006;28;20072;-81
2022/03/14 05:16:07;;;;;;;129.73;10.40;;;0.90;99.90;;;;;;5036196;28;20041;-81
2022/03/14 05:18:34;;;;;;;68.35;8.27;;;0.90;99.90;;;;;;5035904;28;20033;-81
2022/03/14 05:21:01;;;;;;;19.92;7.32;;;1.00;99.90;;;;;;5035835;28;20400;-81
2022/03/14 05:23:28;;;;;;;12.25;7.85;;;1.00;99.90;;;;;;5035892;28;20041;-81
2022/03/14 05:25:57;;;;;;;9.55;6.88;;;1.20;99.90;;;;;;5036305;28;20595;-74
2022/03/14 05:28:24;;;;;;;9.82;7.57;;;1.50;99.90;;;;;;5035556;28;20046;-79
2022/03/14 05:30:50;;;;;;;13.90;6.65;;;1.60;99.90;;;;;;5035579;28;20501;-80
2022/03/14 05:33:15;;;;;;;6.68;5.70;;;1.60;99.90;;;;;;5035584;28;20037;-80
2022/03/14 05:35:41;;;;;;;271.52;16.25;;;1.80;99.90;;;;;;5038579;28;20053;-80
2022/03/14 05:38:10;;;;;;;9.48;6.43;;;1.90;99.90;;;;;;5038238;28;20064;-76
2022/03/14 05:40:36;;;;;;;55.63;7.18;;;1.80;99.90;;;;;;5035506;28;20044;-78
2022/03/14 05:43:09;;;;;;;9.07;5.20;;;2.00;99.90;;;;;;5035972;28;20050;-80
2022/03/14 05:45:35;;;;;;;7.45;5.22;;;2.10;99.90;;;;;;5035428;28;20496;-79
2022/03/14 05:48:02;;;;;;;6.78;5.15;;;2.20;99.90;;;;;;5035582;28;20083;-80
2022/03/14 05:50:28;;;;;;;7.45;4.90;;;2.10;99.90;;;;;;5034930;28;20045;-80
2022/03/14 05:52:54;;;;;;;9.93;5.78;;;2.00;99.90;;;;;;5035161;28;20042;-79
2022/03/14 05:55:20;;;;;;;12.00;5.15;;;2.10;99.90;;;;;;5035090;28;20069;-80
2022/03/14 05:57:46;;;;;;;9.93;4.95;;;1.90;99.90;;;;;;5033760;28;20120;-81
2022/03/14 06:00:13;;;;;;;6.78;4.90;;;1.70;99.90;;;;;;5049761;28;20128;-76
2022/03/14 06:02:47;;;;;;;7.45;4.93;;;1.80;99.90;;;;;;5039986;28;20034;-76
2022/03/14 06:05:14;;;;;;;11.80;6.60;;;1.80;99.90;;;;;;5033876;28;20556;-74
2022/03/14 06:07:40;;;;;;;14.52;6.03;;;1.90;99.90;;;;;;5034102;28;20037;-72
2022/03/14 06:10:07;;;;;;;20.23;9.98;;;1.90;99.90;;;;;;5034309;28;20543;-80
2022/03/14 06:12:33;;;;;;;22.73;12.85;;;2.10;99.90;;;;;;5033464;28;20038;-75
2022/03/14 06:15:02;;;;;;;17.05;9.63;;;2.30;99.90;;;;;;5034355;28;20057;-80
2022/03/14 06:17:27;;;;;;;17.67;10.07;;;2.20;99.90;;;;;;5034602;28;20116;-78
2022/03/14 06:19:53;;;;;;;11.80;7.35;;;2.20;99.90;;;;;;5034518;28;20132;-80
2022/03/14 06:22:22;;;;;;;22.45;7.15;;;2.30;99.90;;;;;;5034721;28;20041;-81
2022/03/14 06:24:49;;;;;;;9.55;6.78;;;1.80;99.90;;;;;;5034569;28;20050;-80
2022/03/14 06:27:15;;;;;;;31.67;9.65;;;1.80;99.90;;;;;;5033810;28;20144;-82
2022/03/14 06:29:42;;;;;;;29.60;10.85;;;2.00;99.90;;;;;;5034468;28;20087;-70
2022/03/14 06:32:09;;;;;;;35.13;11.60;;;2.00;99.90;;;;;;5040397;28;20037;-79
2022/03/14 06:34:35;;;;;;;45.58;12.70;;;3.10;99.90;;;;;;5032004;28;20081;-84
2022/03/14 06:37:01;;;;;;;16.33;8.25;;;3.50;99.90;;;;;;5033102;28;20053;-72
2022/03/14 06:39:26;;;;;;;16.50;7.85;;;2.60;99.90;;;;;;5034110;28;20053;-70
2022/03/14 06:41:52;;;;;;;30.48;9.90;;;2.30;99.90;;;;;;5034255;28;20148;-71
2022/03/14 06:44:19;;;;;;;35.85;10.18;;;2.20;99.90;;;;;;5034118;28;20171;-80
2022/03/14 06:46:45;;;;;;;34.65;10.65;;;2.10;99.90;;;;;;5034228;28;20075;-80
2022/03/14 06:49:13;;;;;;;51.13;11.23;;;1.90;99.90;;;;;;5033732;28;20128;-80
2022/03/14 06:51:41;;;;;;;35.58;11.38;;;2.00;99.90;;;;;;5034408;28;20030;-80
2022/03/14 06:54:09;;;;;;;65.90;12.15;;;2.00;99.90;;;;;;5034033;28;20072;-81
2022/03/14 06:56:37;;;;;;;112.32;14.48;;;2.10;99.90;;;;;;5033943;28;20029;-81
2022/03/14 06:59:03;;;;;;;318.30;21.52;;;2.10;99.90;;;;;;5033804;28;20052;-80
2022/03/14 07:01:30;;;;;;;34.40;15.80;;;2.30;99.90;;;;;;5033786;28;20116;-80
2022/03/14 07:03:56;;;;;;;98.78;17.35;;;2.60;99.90;;;;;;5036109;28;20453;-79
2022/03/14 07:06:22;;;;;;;50.80;16.33;;;2.80;99.90;;;;;;5033770;28;20124;-74
2022/03/14 07:08:48;;;;;;;121.20;17.27;;;2.90;99.90;;;;;;5033189;28;20132;-78
2022/03/14 07:11:14;;;;;;;41.42;16.00;;;3.00;99.90;;;;;;5030476;28;20076;-71
2022/03/14 07:13:40;;;;;;;63.95;14.90;;;3.10;99.90;;;;;;5030302;28;20053;-74
2022/03/14 07:16:05;;;;;;;34.13;14.10;;;2.90;99.90;;;;;;5032912;28;20417;-70
2022/03/14 07:18:31;;;;;;;38.28;13.27;;;2.90;99.90;;;;;;5032578;28;20048;-73
2022/03/14 07:20:57;;;;;;;155.35;15.45;;;2.80;99.90;;;;;;5032675;28;20045;-70
2022/03/14 07:23:23;;;;;;;127.95;15.85;;;2.60;99.90;;;;;;5033388;28;20579;-78
2022/03/14 07:25:52;;;;;;;61.22;13.48;;;2.50;99.90;;;;;;5033435;28;20129;-78
2022/03/14 07:28:18;;;;;;;40.78;15.35;;;2.70;99.90;;;;;;5032023;28;20045;-71
2022/03/14 07:30:45;;;;;;;66.95;16.08;;;2.90;99.90;;;;;;5032760;28;20072;-73
2022/03/14 07:33:12;;;;;;;75.03;15.20;;;3.00;99.90;;;;;;5033558;28;20045;-78
2022/03/14 07:35:38;;;;;;;39.22;15.07;;;3.00;99.90;;;;;;5033370;28;20045;-79
2022/03/14 07:38:04;;;;;;;45.13;16.38;;;3.00;99.90;;;;;;5033225;28;20048;-73
2022/03/14 07:40:31;;;;;;;36.22;16.77;;;3.20;99.90;;;;;;5032928;28;20038;-79
2022/03/14 07:42:59;;;;;;;29.33;14.85;;;3.40;99.90;;;;;;5033352;28;20496;-79
2022/03/14 07:45:26;;;;;;;38.05;15.48;;;3.60;99.90;;;;;;5032369;28;20037;-69
2022/03/14 07:47:53;;;;;;;35.78;14.25;;;3.70;99.90;;;;;;5032871;28;20036;-79
2022/03/14 07:50:19;;;;;;;43.33;14.07;;;3.70;99.90;;;;;;5033194;28;20068;-77
2022/03/14 07:52:47;;;;;;;26.35;13.63;;;3.60;99.90;;;;;;5033242;28;20128;-70
2022/03/14 07:55:13;;;;;;;31.17;13.43;;;3.50;99.90;;;;;;5032941;28;20045;-75
2022/03/14 07:57:40;;;;;;;22.85;12.82;;;3.70;99.90;;;;;;5032586;28;20045;-76
2022/03/14 08:00:12;;;;;;;88.78;44.28;;;3.90;99.90;;;;;;5033192;28;20123;-68
2022/03/14 08:02:39;;;;;;;63.75;33.55;;;4.10;99.90;;;;;;5033381;28;20048;-70
2022/03/14 08:05:06;;;;;;;25.73;14.20;;;4.60;99.90;;;;;;5033001;28;20128;-69
2022/03/14 08:07:33;;;;;;;26.48;13.95;;;4.60;99.90;;;;;;5032751;28;20037;-77
2022/03/14 08:10:00;;;;;;;29.65;13.07;;;4.50;99.90;;;;;;5033467;28;20042;-72
2022/03/14 08:12:26;;;;;;;121.93;22.10;;;4.60;99.90;;;;;;5033628;28;20049;-76
2022/03/14 08:14:52;;;;;;;25.92;14.55;;;4.50;99.90;;;;;;5033562;28;20060;-70
2022/03/14 08:17:18;;;;;;;29.17;13.50;;;4.70;99.90;;;;;;5034505;28;20041;-78
2022/03/14 08:19:45;;;;;;;35.15;13.38;;;4.80;99.90;;;;;;5033819;28;20049;-79
2022/03/14 08:22:11;;;;;;;65.85;15.27;;;4.90;99.90;;;;;;5034063;28;20097;-68
2022/03/14 08:24:37;;;;;;;52.63;14.57;;;4.90;99.90;;;;;;5036961;28;20037;-77
2022/03/14 08:27:03;;;;;;;26.83;15.00;;;4.80;99.90;;;;;;5037927;28;20049;-76
2022/03/14 08:29:29;;;;;;;31.00;15.10;;;4.80;99.90;;;;;;5037662;28;20046;-77
2022/03/14 08:31:58;;;;;;;24.40;14.32;;;4.80;99.90;;;;;;5039758;28;20040;-70
2022/03/14 08:34:25;;;;;;;27.92;14.05;;;4.70;99.90;;;;;;5037604;28;20080;-78
2022/03/14 08:36:51;;;;;;;24.63;13.77;;;4.70;99.90;;;;;;5038419;28;20037;-77
2022/03/14 08:39:17;;;;;;;24.20;12.63;;;5.00;99.90;;;;;;5020068;28;20444;-77
2022/03/14 08:41:44;;;;;;;21.95;11.50;;;4.70;99.90;;;;;;5037670;28;20157;-75
2022/03/14 08:44:10;;;;;;;20.05;10.10;;;4.50;99.90;;;;;;5036842;28;20044;-77
2022/03/14 08:46:38;;;;;;;20.20;11.85;;;4.30;99.90;;;;;;5036624;28;20064;-76
2022/03/14 08:49:04;;;;;;;20.05;11.95;;;4.50;99.90;;;;;;5036248;28;20423;-76
2022/03/14 08:51:29;;;;;;;27.13;13.93;;;4.60;99.90;;;;;;5036718;28;20041;-77
2022/03/14 08:53:55;;;;;;;20.00;11.73;;;5.00;99.90;;;;;;5036142;28;20037;-77
2022/03/14 08:56:21;;;;;;;27.55;13.43;;;4.90;99.90;;;;;;5034475;28;20143;-76
2022/03/14 08:58:47;;;;;;;25.27;11.82;;;5.30;99.90;;;;;;5035866;28;20519;-77
2022/03/14 09:01:13;;;;;;;19.77;12.05;;;5.40;99.90;;;;;;5034216;28;20401;-76
2022/03/14 09:03:39;;;;;;;14.48;9.70;;;5.40;99.90;;;;;;5034191;28;20513;-76
2022/03/14 09:06:05;;;;;;;19.15;11.52;;;5.40;99.90;;;;;;5033763;28;20122;-76
2022/03/14 09:08:32;;;;;;;16.40;10.13;;;5.50;99.90;;;;;;5032935;28;20123;-72
2022/03/14 09:11:01;;;;;;;16.00;9.77;;;5.60;99.90;;;;;;5032672;28;20048;-76
2022/03/14 09:13:28;;;;;;;13.48;9.10;;;5.20;99.90;;;;;;5032368;28;20104;-75
2022/03/14 09:15:54;;;;;;;12.85;8.32;;;5.00;99.90;;;;;;5032302;28;20060;-76
2022/03/14 09:18:21;;;;;;;12.45;8.13;;;5.00;99.90;;;;;;5033801;28;20037;-76
2022/03/14 09:20:48;;;;;;;12.48;8.90;;;5.00;99.90;;;;;;5036724;28;20060;-75
2022/03/14 09:23:15;;;;;;;13.77;8.40;;;5.20;99.90;;;;;;5035725;28;20060;-75
2022/03/14 09:25:41;;;;;;;15.32;10.55;;;5.10;99.90;;;;;;5036037;28;20045;-76
2022/03/14 09:28:07;;;;;;;14.15;9.13;;;;;;;;;;5036769;28;20504;-76
2022/03/14 09:30:33;;;;;;;12.68;8.52;;;;;;;;;;5038290;28;20037;-71
2022/03/14 09:32:59;;;;;;;13.00;9.07;;;6.10;99.90;;;;;;5042446;28;20794;-77
2022/03/14 09:35:25;;;;;;;14.15;9.43;;;6.20;99.90;;;;;;5036908;28;20050;-80
2022/03/14 09:37:51;;;;;;;14.13;8.98;;;6.10;99.90;;;;;;5035682;28;20038;-78
2022/03/14 09:40:19;;;;;;;13.85;9.18;;;6.20;99.90;;;;;;5038220;28;20126;-79
2022/03/14 09:42:47;;;;;;;14.20;9.93;;;6.60;99.90;;;;;;5038041;28;20492;-77
2022/03/14 09:45:14;;;;;;;16.15;10.48;;;6.70;99.90;;;;;;5035394;28;20041;-75
2022/03/14 09:47:45;;;;;;;16.45;11.20;;;6.90;99.90;;;;;;5035534;28;20132;-76
2022/03/14 09:50:20;;;;;;;19.20;12.35;;;7.00;99.90;;;;;;5056252;28;20036;-76
2022/03/14 09:52:46;;;;;;;17.90;11.40;;;6.90;99.90;;;;;;5039683;28;20055;-76
2022/03/14 09:55:13;;;;;;;15.40;9.75;;;6.90;99.90;;;;;;5055774;28;20420;-76
2022/03/14 09:57:39;;;;;;;18.33;11.30;;;6.80;99.90;;;;;;5055061;28;20044;-76
2022/03/14 10:00:13;;;;;;;17.40;11.32;;;;;;;;;;5056688;28;20443;-74
2022/03/14 10:02:39;;;;;;;17.05;11.38;;;7.10;99.90;;;;;;5055343;28;20036;-75
2022/03/14 10:05:08;;;;;;;17.67;11.52;;;7.30;99.90;;;;;;5057241;28;20128;-69
2022/03/14 10:07:38;;;;;;;15.07;10.77;;;;;;;;;;5054887;28;20500;-75
2022/03/14 10:10:04;;;;;;;15.63;11.18;;;7.60;99.90;;;;;;5054916;28;20053;-72
2022/03/14 10:12:32;;;;;;;16.85;11.73;;;7.80;99.90;;;;;;5054819;28;20037;-74
2022/03/14 10:14:59;;;;;;;17.00;10.60;;;7.90;99.90;;;;;;5054761;28;20106;-74
2022/03/14 10:17:26;;;;;;;16.95;10.93;;;8.00;99.90;;;;;;5054907;28;20036;-74
2022/03/14 10:19:55;;;;;;;22.23;12.25;;;7.90;99.90;;;;;;5055057;28;20385;-72
2022/03/14 10:22:21;;;;;;;19.73;11.98;;;7.90;99.90;;;;;;5054630;28;20059;-71
2022/03/14 10:24:48;;;;;;;15.88;10.20;;;7.70;99.90;;;;;;5054547;28;20029;-74
2022/03/14 10:27:20;;;;;;;18.67;11.68;;;7.50;99.90;;;;;;5054660;28;20073;-74
2022/03/14 10:29:46;;;;;;;15.38;10.48;;;7.30;99.90;;;;;;5054082;28;20045;-75
2022/03/14 10:32:19;;;;;;;16.70;11.02;;;7.30;99.90;;;;;;5054383;28;20411;-70
2022/03/14 10:34:53;;;;;;;15.10;10.40;;;7.40;99.90;;;;;;5048803;28;20046;-70
2022/03/14 10:37:18;;;;;;;22.83;14.43;;;7.30;99.90;;;;;;5034695;28;20195;-75
2022/03/14 10:39:44;;;;;;;17.73;12.25;;;7.30;99.90;;;;;;5034257;28;20601;-70
2022/03/14 10:42:12;;;;;;;19.27;13.18;;;7.30;99.90;;;;;;5034281;28;20052;-74
2022/03/14 10:44:41;;;;;;;18.17;12.40;;;7.50;99.90;;;;;;5033963;28;20061;-70
2022/03/14 10:47:11;;;;;;;16.33;11.80;;;7.50;99.90;;;;;;5034123;28;20029;-75
2022/03/14 10:49:39;;;;;;;18.48;12.80;;;7.70;99.90;;;;;;5034085;28;20041;-74
2022/03/14 10:52:08;;;;;;;19.48;13.43;;;7.90;99.90;;;;;;5034053;28;20049;-72
2022/03/14 10:54:38;;;;;;;18.50;12.88;;;7.70;99.90;;;;;;5033754;28;20420;-75
2022/03/14 10:57:30;;;;;;;19.07;13.37;;;7.70;99.90;;;;;;5033606;28;20113;-74
2022/03/14 10:59:57;;;;;;;18.73;13.25;;;7.60;99.90;;;;;;5031619;28;20382;-71
2022/03/14 11:02:25;;;;;;;19.88;12.88;;;7.30;99.90;;;;;;5034122;28;20041;-75
2022/03/14 11:04:56;;;;;;;18.85;12.65;;;7.50;99.90;;;;;;5027744;28;20057;-72
2022/03/14 11:07:28;;;;;;;18.52;12.63;;;8.10;99.90;;;;;;5030773;28;20045;-78
2022/03/14 11:09:58;;;;;;;18.70;12.65;;;8.70;99.90;;;;;;5031008;28;20052;-75
2022/03/14 11:12:29;;;;;;;19.13;12.63;;;9.10;99.90;;;;;;5030670;28;20479;-74
2022/03/14 11:14:57;;;;;;;19.17;13.93;;;9.30;99.90;;;;;;5029208;28;20057;-74
2022/03/14 11:17:37;;;;;;;16.58;11.23;;;9.60;99.90;;;;;;5028961;28;20080;-74
2022/03/14 11:20:03;;;;;;;17.52;12.13;;;9.00;99.90;;;;;;5034508;28;20417;-71
2022/03/14 11:22:30;;;;;;;21.48;14.43;;;8.90;99.90;;;;;;5031701;28;20120;-74
2022/03/14 11:24:58;;;;;;;18.13;12.65;;;9.30;99.90;;;;;;5033715;28;20551;-74
2022/03/14 11:27:27;;;;;;;17.38;12.05;;;;;;;;;;5033571;28;20049;-77
2022/03/14 11:29:58;;;;;;;16.83;12.02;;;9.80;99.90;;;;;;5033455;28;20496;-76
2022/03/14 11:32:24;;;;;;;;;;;10.40;99.90;;;;;;5033746;28;20535;-75
2022/03/14 11:34:50;;;;;;;21.90;12.95;;;10.20;99.90;;;;;;5033237;28;19921;-76
2022/03/14 11:37:17;;;;;;;17.35;11.57;;;10.10;99.90;;;;;;5033113;28;20492;-75
2022/03/14 11:39:44;;;;;;;18.40;13.05;;;10.20;99.90;;;;;;5033179;28;20052;-78
2022/03/14 11:42:12;;;;;;;17.38;11.88;;;10.30;99.90;;;;;;5032544;28;20037;-77
2022/03/14 11:44:39;;;;;;;15.88;11.18;;;10.40;99.90;;;;;;5033381;28;20045;-78
2022/03/14 11:47:08;;;;;;;15.20;11.63;;;10.20;99.90;;;;;;5033084;28;20025;-76
2022/03/14 11:49:35;;;;;;;19.00;12.45;;;;;;;;;;5047418;28;20045;-80
2022/03/14 11:52:08;;;;;;;14.25;11.35;;;;;;;;;;5053008;28;20040;-72
2022/03/14 11:54:38;;;;;;;14.40;10.80;;;;;;;;;;5053063;28;20052;-79
2022/03/14 11:57:05;;;;;;;13.90;10.15;;;9.90;99.90;;;;;;5053044;28;20037;-69
2022/03/14 11:59:32;;;;;;;18.00;12.43;;;;;;;;;;5052884;28;20037;-73
2022/03/14 12:02:00;;;;;;;19.10;14.30;;;10.10;99.90;;;;;;5052812;28;20041;-72
2022/03/14 12:04:39;;;;;;;20.23;12.60;;;10.30;99.90;;;;;;5052582;28;20597;-76
2022/03/14 12:07:08;;;;;;;13.32;10.10;;;9.90;99.90;;;;;;5052818;28;20063;-77
2022/03/14 12:09:34;;;;;;;15.95;10.98;;;9.70;99.90;;;;;;5052875;28;20475;-75
2022/03/14 12:12:12;;;;;;;13.70;10.32;;;9.90;99.90;;;;;;5052784;28;20068;-75
2022/03/14 12:14:51;;;;;;;14.45;10.27;;;9.70;99.90;;;;;;5052684;28;20051;-75
2022/03/14 12:17:17;;;;;;;12.30;9.25;;;9.80;99.90;;;;;;5052782;28;20041;-73
2022/03/14 12:20:05;;;;;;;12.60;9.13;;;9.90;99.90;;;;;;5052849;28;20043;-73
2022/03/14 12:22:32;;;;;;;12.75;8.90;;;10.00;99.90;;;;;;5052633;28;20419;-75
2022/03/14 12:24:59;;;;;;;11.88;7.47;;;10.00;99.90;;;;;;5052742;28;20044;-69
2022/03/14 12:27:31;;;;;;;12.98;9.38;;;9.90;99.90;;;;;;5052649;28;20099;-75
2022/03/14 12:29:58;;;;;;;13.25;9.68;;;9.80;99.90;;;;;;5052806;28;20510;-76
2022/03/14 12:33:02;;;;;;;12.40;8.77;;;9.80;99.90;;;;;;5052748;28;20033;-76
2022/03/14 12:35:33;;;;;;;15.55;10.07;;;10.00;99.90;;;;;;5052502;28;20128;-75
2022/03/14 12:38:21;;;;;;;13.93;9.65;;;;;;;;;;5040336;28;20052;-78
2022/03/14 12:40:48;;;;;;;14.93;11.73;;;10.10;99.90;;;;;;5032724;28;20686;-77
2022/03/14 12:43:24;;;;;;;18.20;11.85;;;10.10;99.90;;;;;;5032847;28;20120;-77
2022/03/14 12:45:56;;;;;;;18.63;12.10;;;10.00;99.90;;;;;;5032639;28;20578;-76